sensor_id;sensor_type;location;lat;lon;timestamp;pressure;altitude;pressure_sealevel;temperature
64960;BMP180;51487;52.266;10.542;2023-04-21T00:01:10;100837.00;;;7.60
64960;BMP180;51487;52.266;10.542;2023-04-21T00:03:37;100844.00;;;7.60
64960;BMP180;51487;52.266;10.542;2023-04-21T00:06:04;100847.00;;;7.60
64960;BMP180;51487;52.266;10.542;2023-04-21T00:08:34;100836.00;;;7.60
64960;BMP180;51487;52.266;10.542;2023-04-21T00:11:07;100835.00;;;7.60
64960;BMP180;51487;52.266;10.542;2023-04-21T00:13:34;100833.00;;;7.60
64960;BMP180;51487;52.266;10.542;2023-04-21T00:16:01;100827.00;;;7.60
64960;BMP180;51487;52.266;10.542;2023-04-21T00:18:27;100829.00;;;7.70
64960;BMP180;51487;52.266;10.542;2023-04-21T00:20:52;100830.00;;;7.60
64960;BMP180;51487;52.266;10.542;2023-04-21T00:23:18;100829.00;;;7.50
64960;BMP180;51487;52.266;10.542;2023-04-21T00:25:44;100835.00;;;7.50
64960;BMP180;51487;52.266;10.542;2023-04-21T00:28:09;100837.00;;;7.50
64960;BMP180;51487;52.266;10.542;2023-04-21T00:30:35;100825.00;;;7.50
64960;BMP180;51487;52.266;10.542;2023-04-21T00:33:00;100828.00;;;7.50
64960;BMP180;51487;52.266;10.542;2023-04-21T00:35:26;100823.00;;;7.50
64960;BMP180;51487;52.266;10.542;2023-04-21T00:37:51;100826.00;;;7.40
64960;BMP180;51487;52.266;10.542;2023-04-21T00:40:17;100817.00;;;7.40
64960;BMP180;51487;52.266;10.542;2023-04-21T00:42:43;100811.00;;;7.40
64960;BMP180;51487;52.266;10.542;2023-04-21T00:45:09;100817.00;;;7.40
64960;BMP180;51487;52.266;10.542;2023-04-21T00:47:35;100818.00;;;7.40
64960;BMP180;51487;52.266;10.542;2023-04-21T00:50:01;100801.00;;;7.50
64960;BMP180;51487;52.266;10.542;2023-04-21T00:52:28;100808.00;;;7.40
64960;BMP180;51487;52.266;10.542;2023-04-21T00:54:55;100812.00;;;7.40
64960;BMP180;51487;52.266;10.542;2023-04-21T00:57:21;100806.00;;;7.40
64960;BMP180;51487;52.266;10.542;2023-04-21T00:59:48;100792.00;;;7.40
64960;BMP180;51487;52.266;10.542;2023-04-21T01:02:15;100792.00;;;7.50
64960;BMP180;51487;52.266;10.542;2023-04-21T01:04:42;100793.00;;;7.40
64960;BMP180;51487;52.266;10.542;2023-04-21T01:07:09;100797.00;;;7.30
64960;BMP180;51487;52.266;10.542;2023-04-21T01:09:35;100789.00;;;7.40
64960;BMP180;51487;52.266;10.542;2023-04-21T01:12:06;100797.00;;;7.40
64960;BMP180;51487;52.266;10.542;2023-04-21T01:14:34;100793.00;;;7.40
64960;BMP180;51487;52.266;10.542;2023-04-21T01:17:00;100784.00;;;7.50
64960;BMP180;51487;52.266;10.542;2023-04-21T01:19:31;100792.00;;;7.50
64960;BMP180;51487;52.266;10.542;2023-04-21T01:21:59;100780.00;;;7.60
64960;BMP180;51487;52.266;10.542;2023-04-21T01:24:39;100778.00;;;7.50
64960;BMP180;51487;52.266;10.542;2023-04-21T01:27:08;100774.00;;;7.50
64960;BMP180;51487;52.266;10.542;2023-04-21T01:29:36;100787.00;;;7.60
64960;BMP180;51487;52.266;10.542;2023-04-21T01:32:07;100788.00;;;7.50
64960;BMP180;51487;52.266;10.542;2023-04-21T01:34:39;100790.00;;;7.50
64960;BMP180;51487;52.266;10.542;2023-04-21T01:37:12;100789.00;;;7.60
64960;BMP180;51487;52.266;10.542;2023-04-21T01:39:41;100775.00;;;7.50
64960;BMP180;51487;52.266;10.542;2023-04-21T01:42:08;100777.00;;;7.50
64960;BMP180;51487;52.266;10.542;2023-04-21T01:44:35;100780.00;;;7.50
64960;BMP180;51487;52.266;10.542;2023-04-21T01:47:01;100783.00;;;7.60
64960;BMP180;51487;52.266;10.542;2023-04-21T01:49:27;100783.00;;;7.50
64960;BMP180;51487;52.266;10.542;2023-04-21T01:51:53;100777.00;;;7.50
64960;BMP180;51487;52.266;10.542;2023-04-21T01:54:18;100784.00;;;7.50
64960;BMP180;51487;52.266;10.542;2023-04-21T01:56:44;100785.00;;;7.50
64960;BMP180;51487;52.266;10.542;2023-04-21T01:59:09;100778.00;;;7.40
64960;BMP180;51487;52.266;10.542;2023-04-21T02:01:35;100781.00;;;7.40
64960;BMP180;51487;52.266;10.542;2023-04-21T02:04:04;100785.00;;;7.30
64960;BMP180;51487;52.266;10.542;2023-04-21T02:06:30;100782.00;;;7.30
64960;BMP180;51487;52.266;10.542;2023-04-21T02:08:56;100784.00;;;7.30
64960;BMP180;51487;52.266;10.542;2023-04-21T02:11:23;100785.00;;;7.30
64960;BMP180;51487;52.266;10.542;2023-04-21T02:13:53;100786.00;;;7.30
64960;BMP180;51487;52.266;10.542;2023-04-21T02:16:20;100786.00;;;7.40
64960;BMP180;51487;52.266;10.542;2023-04-21T02:18:50;100776.00;;;7.40
64960;BMP180;51487;52.266;10.542;2023-04-21T02:21:18;100778.00;;;7.40
64960;BMP180;51487;52.266;10.542;2023-04-21T02:23:45;100773.00;;;7.40
64960;BMP180;51487;52.266;10.542;2023-04-21T02:26:11;100772.00;;;7.30
64960;BMP180;51487;52.266;10.542;2023-04-21T02:28:36;100771.00;;;7.30
64960;BMP180;51487;52.266;10.542;2023-04-21T02:31:02;100774.00;;;7.30
64960;BMP180;51487;52.266;10.542;2023-04-21T02:33:28;100771.00;;;7.30
64960;BMP180;51487;52.266;10.542;2023-04-21T02:35:54;100766.00;;;7.30
64960;BMP180;51487;52.266;10.542;2023-04-21T02:38:20;100770.00;;;7.30
64960;BMP180;51487;52.266;10.542;2023-04-21T02:40:45;100769.00;;;7.30
64960;BMP180;51487;52.266;10.542;2023-04-21T02:43:13;100766.00;;;7.30
64960;BMP180;51487;52.266;10.542;2023-04-21T02:45:38;100764.00;;;7.30
64960;BMP180;51487;52.266;10.542;2023-04-21T02:48:04;100766.00;;;7.30
64960;BMP180;51487;52.266;10.542;2023-04-21T02:50:30;100763.00;;;7.20
64960;BMP180;51487;52.266;10.542;2023-04-21T02:52:56;100770.00;;;7.20
64960;BMP180;51487;52.266;10.542;2023-04-21T02:55:21;100756.00;;;7.30
64960;BMP180;51487;52.266;10.542;2023-04-21T02:57:47;100764.00;;;7.30
64960;BMP180;51487;52.266;10.542;2023-04-21T03:00:13;100762.00;;;7.50
64960;BMP180;51487;52.266;10.542;2023-04-21T03:02:40;100757.00;;;7.40
64960;BMP180;51487;52.266;10.542;2023-04-21T03:05:07;100757.00;;;7.40
64960;BMP180;51487;52.266;10.542;2023-04-21T03:07:33;100752.00;;;7.40
64960;BMP180;51487;52.266;10.542;2023-04-21T03:09:58;100749.00;;;7.40
64960;BMP180;51487;52.266;10.542;2023-04-21T03:12:24;100751.00;;;7.30
64960;BMP180;51487;52.266;10.542;2023-04-21T03:14:49;100747.00;;;7.30
64960;BMP180;51487;52.266;10.542;2023-04-21T03:17:15;100755.00;;;7.30
64960;BMP180;51487;52.266;10.542;2023-04-21T03:19:41;100745.00;;;7.30
64960;BMP180;51487;52.266;10.542;2023-04-21T03:22:06;100751.00;;;7.30
64960;BMP180;51487;52.266;10.542;2023-04-21T03:24:32;100748.00;;;7.20
64960;BMP180;51487;52.266;10.542;2023-04-21T03:26:57;100750.00;;;7.30
64960;BMP180;51487;52.266;10.542;2023-04-21T03:29:23;100754.00;;;7.30
64960;BMP180;51487;52.266;10.542;2023-04-21T03:31:49;100757.00;;;7.20
64960;BMP180;51487;52.266;10.542;2023-04-21T03:34:14;100758.00;;;7.20
64960;BMP180;51487;52.266;10.542;2023-04-21T03:36:40;100747.00;;;7.10
64960;BMP180;51487;52.266;10.542;2023-04-21T03:39:06;100762.00;;;7.10
64960;BMP180;51487;52.266;10.542;2023-04-21T03:41:34;100755.00;;;7.00
64960;BMP180;51487;52.266;10.542;2023-04-21T03:44:00;100759.00;;;7.00
64960;BMP180;51487;52.266;10.542;2023-04-21T03:46:25;100755.00;;;7.00
64960;BMP180;51487;52.266;10.542;2023-04-21T03:48:51;100755.00;;;7.00
64960;BMP180;51487;52.266;10.542;2023-04-21T03:51:16;100765.00;;;6.90
64960;BMP180;51487;52.266;10.542;2023-04-21T03:53:42;100758.00;;;6.90
64960;BMP180;51487;52.266;10.542;2023-04-21T03:56:08;100765.00;;;6.90
64960;BMP180;51487;52.266;10.542;2023-04-21T03:58:34;100759.00;;;6.90
64960;BMP180;51487;52.266;10.542;2023-04-21T04:01:00;100770.00;;;6.90
64960;BMP180;51487;52.266;10.542;2023-04-21T04:03:26;100775.00;;;7.00
64960;BMP180;51487;52.266;10.542;2023-04-21T04:05:51;100769.00;;;6.90
64960;BMP180;51487;52.266;10.542;2023-04-21T04:08:17;100770.00;;;6.90
64960;BMP180;51487;52.266;10.542;2023-04-21T04:10:43;100771.00;;;6.90
64960;BMP180;51487;52.266;10.542;2023-04-21T04:13:09;100777.00;;;7.00
64960;BMP180;51487;52.266;10.542;2023-04-21T04:15:34;100760.00;;;7.00
64960;BMP180;51487;52.266;10.542;2023-04-21T04:18:00;100771.00;;;7.00
64960;BMP180;51487;52.266;10.542;2023-04-21T04:20:26;100761.00;;;7.00
64960;BMP180;51487;52.266;10.542;2023-04-21T04:22:52;100768.00;;;7.00
64960;BMP180;51487;52.266;10.542;2023-04-21T04:25:17;100770.00;;;6.90
64960;BMP180;51487;52.266;10.542;2023-04-21T04:27:43;100759.00;;;6.90
64960;BMP180;51487;52.266;10.542;2023-04-21T04:30:10;100769.00;;;7.00
64960;BMP180;51487;52.266;10.542;2023-04-21T04:32:37;100767.00;;;7.00
64960;BMP180;51487;52.266;10.542;2023-04-21T04:35:07;100766.00;;;7.00
64960;BMP180;51487;52.266;10.542;2023-04-21T04:37:37;100777.00;;;7.00
64960;BMP180;51487;52.266;10.542;2023-04-21T04:40:04;100774.00;;;7.00
64960;BMP180;51487;52.266;10.542;2023-04-21T04:42:31;100768.00;;;7.00
64960;BMP180;51487;52.266;10.542;2023-04-21T04:44:57;100772.00;;;7.10
64960;BMP180;51487;52.266;10.542;2023-04-21T04:47:25;100771.00;;;7.20
64960;BMP180;51487;52.266;10.542;2023-04-21T04:49:51;100767.00;;;7.30
64960;BMP180;51487;52.266;10.542;2023-04-21T04:52:17;100778.00;;;7.30
64960;BMP180;51487;52.266;10.542;2023-04-21T04:54:44;100773.00;;;7.30
64960;BMP180;51487;52.266;10.542;2023-04-21T04:57:09;100777.00;;;7.30
64960;BMP180;51487;52.266;10.542;2023-04-21T04:59:35;100771.00;;;7.40
64960;BMP180;51487;52.266;10.542;2023-04-21T05:02:01;100772.00;;;7.50
64960;BMP180;51487;52.266;10.542;2023-04-21T05:04:27;100774.00;;;7.50
64960;BMP180;51487;52.266;10.542;2023-04-21T05:06:53;100781.00;;;7.60
64960;BMP180;51487;52.266;10.542;2023-04-21T05:09:18;100780.00;;;7.60
64960;BMP180;51487;52.266;10.542;2023-04-21T05:11:44;100775.00;;;7.80
64960;BMP180;51487;52.266;10.542;2023-04-21T05:14:09;100772.00;;;7.80
64960;BMP180;51487;52.266;10.542;2023-04-21T05:16:35;100775.00;;;7.70
64960;BMP180;51487;52.266;10.542;2023-04-21T05:19:01;100778.00;;;7.80
64960;BMP180;51487;52.266;10.542;2023-04-21T05:21:27;100784.00;;;7.90
64960;BMP180;51487;52.266;10.542;2023-04-21T05:23:57;100776.00;;;8.00
64960;BMP180;51487;52.266;10.542;2023-04-21T05:26:24;100775.00;;;8.00
64960;BMP180;51487;52.266;10.542;2023-04-21T05:28:52;100788.00;;;8.10
64960;BMP180;51487;52.266;10.542;2023-04-21T05:31:18;100783.00;;;8.10
64960;BMP180;51487;52.266;10.542;2023-04-21T05:33:44;100782.00;;;8.10
64960;BMP180;51487;52.266;10.542;2023-04-21T05:36:09;100785.00;;;8.10
64960;BMP180;51487;52.266;10.542;2023-04-21T05:38:36;100783.00;;;8.20
64960;BMP180;51487;52.266;10.542;2023-04-21T05:41:03;100781.00;;;8.30
64960;BMP180;51487;52.266;10.542;2023-04-21T05:43:29;100795.00;;;8.30
64960;BMP180;51487;52.266;10.542;2023-04-21T05:45:58;100797.00;;;8.40
64960;BMP180;51487;52.266;10.542;2023-04-21T05:48:24;100792.00;;;8.50
64960;BMP180;51487;52.266;10.542;2023-04-21T05:50:49;100792.00;;;8.60
64960;BMP180;51487;52.266;10.542;2023-04-21T05:53:15;100792.00;;;8.60
64960;BMP180;51487;52.266;10.542;2023-04-21T05:55:41;100792.00;;;8.60
64960;BMP180;51487;52.266;10.542;2023-04-21T05:58:07;100792.00;;;8.60
64960;BMP180;51487;52.266;10.542;2023-04-21T06:00:33;100795.00;;;8.70
64960;BMP180;51487;52.266;10.542;2023-04-21T06:02:59;100789.00;;;8.80
64960;BMP180;51487;52.266;10.542;2023-04-21T06:05:24;100788.00;;;9.00
64960;BMP180;51487;52.266;10.542;2023-04-21T06:07:50;100797.00;;;9.00
64960;BMP180;51487;52.266;10.542;2023-04-21T06:10:16;100786.00;;;9.10
64960;BMP180;51487;52.266;10.542;2023-04-21T06:12:42;100788.00;;;9.30
64960;BMP180;51487;52.266;10.542;2023-04-21T06:15:08;100780.00;;;9.40
64960;BMP180;51487;52.266;10.542;2023-04-21T06:17:34;100771.00;;;9.40
64960;BMP180;51487;52.266;10.542;2023-04-21T06:19:59;100780.00;;;9.50
64960;BMP180;51487;52.266;10.542;2023-04-21T06:22:26;100784.00;;;9.60
64960;BMP180;51487;52.266;10.542;2023-04-21T06:24:52;100775.00;;;9.70
64960;BMP180;51487;52.266;10.542;2023-04-21T06:27:17;100785.00;;;9.80
64960;BMP180;51487;52.266;10.542;2023-04-21T06:29:43;100789.00;;;9.90
64960;BMP180;51487;52.266;10.542;2023-04-21T06:32:10;100780.00;;;10.00
64960;BMP180;51487;52.266;10.542;2023-04-21T06:34:36;100773.00;;;10.00
64960;BMP180;51487;52.266;10.542;2023-04-21T06:37:02;100776.00;;;10.10
64960;BMP180;51487;52.266;10.542;2023-04-21T06:39:28;100771.00;;;10.20
64960;BMP180;51487;52.266;10.542;2023-04-21T06:41:53;100771.00;;;10.40
64960;BMP180;51487;52.266;10.542;2023-04-21T06:44:19;100770.00;;;10.40
64960;BMP180;51487;52.266;10.542;2023-04-21T06:46:45;100765.00;;;10.50
64960;BMP180;51487;52.266;10.542;2023-04-21T06:49:11;100774.00;;;10.60
64960;BMP180;51487;52.266;10.542;2023-04-21T06:51:36;100763.00;;;10.70
64960;BMP180;51487;52.266;10.542;2023-04-21T06:54:02;100763.00;;;10.90
64960;BMP180;51487;52.266;10.542;2023-04-21T06:56:29;100769.00;;;10.90
64960;BMP180;51487;52.266;10.542;2023-04-21T06:58:55;100765.00;;;11.10
64960;BMP180;51487;52.266;10.542;2023-04-21T07:01:21;100760.00;;;11.10
64960;BMP180;51487;52.266;10.542;2023-04-21T07:03:50;100765.00;;;11.20
64960;BMP180;51487;52.266;10.542;2023-04-21T07:06:16;100756.00;;;11.30
64960;BMP180;51487;52.266;10.542;2023-04-21T07:08:42;100761.00;;;11.40
64960;BMP180;51487;52.266;10.542;2023-04-21T07:11:07;100757.00;;;11.50
64960;BMP180;51487;52.266;10.542;2023-04-21T07:13:33;100755.00;;;11.50
64960;BMP180;51487;52.266;10.542;2023-04-21T07:15:58;100754.00;;;11.60
64960;BMP180;51487;52.266;10.542;2023-04-21T07:18:24;100748.00;;;11.60
64960;BMP180;51487;52.266;10.542;2023-04-21T07:20:49;100753.00;;;11.60
64960;BMP180;51487;52.266;10.542;2023-04-21T07:23:15;100743.00;;;11.70
64960;BMP180;51487;52.266;10.542;2023-04-21T07:25:41;100753.00;;;11.70
64960;BMP180;51487;52.266;10.542;2023-04-21T07:28:07;100745.00;;;11.80
64960;BMP180;51487;52.266;10.542;2023-04-21T07:30:32;100744.00;;;11.80
64960;BMP180;51487;52.266;10.542;2023-04-21T07:32:58;100744.00;;;11.90
64960;BMP180;51487;52.266;10.542;2023-04-21T07:35:24;100741.00;;;12.00
64960;BMP180;51487;52.266;10.542;2023-04-21T07:37:49;100739.00;;;12.10
64960;BMP180;51487;52.266;10.542;2023-04-21T07:40:15;100745.00;;;12.20
64960;BMP180;51487;52.266;10.542;2023-04-21T07:42:40;100755.00;;;12.20
64960;BMP180;51487;52.266;10.542;2023-04-21T07:45:06;100750.00;;;12.30
64960;BMP180;51487;52.266;10.542;2023-04-21T07:47:32;100742.00;;;12.30
64960;BMP180;51487;52.266;10.542;2023-04-21T07:49:58;100731.00;;;12.30
64960;BMP180;51487;52.266;10.542;2023-04-21T07:52:24;100735.00;;;12.50
64960;BMP180;51487;52.266;10.542;2023-04-21T07:54:50;100740.00;;;12.50
64960;BMP180;51487;52.266;10.542;2023-04-21T07:57:16;100741.00;;;12.70
64960;BMP180;51487;52.266;10.542;2023-04-21T07:59:41;100733.00;;;12.70
64960;BMP180;51487;52.266;10.542;2023-04-21T08:02:07;100734.00;;;12.80
64960;BMP180;51487;52.266;10.542;2023-04-21T08:04:34;100737.00;;;13.00
64960;BMP180;51487;52.266;10.542;2023-04-21T08:07:00;100737.00;;;12.90
64960;BMP180;51487;52.266;10.542;2023-04-21T08:09:26;100738.00;;;13.10
64960;BMP180;51487;52.266;10.542;2023-04-21T08:11:51;100727.00;;;13.10
64960;BMP180;51487;52.266;10.542;2023-04-21T08:14:18;100730.00;;;13.20
64960;BMP180;51487;52.266;10.542;2023-04-21T08:16:43;100731.00;;;13.20
64960;BMP180;51487;52.266;10.542;2023-04-21T08:19:09;100727.00;;;13.20
64960;BMP180;51487;52.266;10.542;2023-04-21T08:21:35;100738.00;;;13.30
64960;BMP180;51487;52.266;10.542;2023-04-21T08:24:01;100734.00;;;13.40
64960;BMP180;51487;52.266;10.542;2023-04-21T08:26:27;100728.00;;;13.50
64960;BMP180;51487;52.266;10.542;2023-04-21T08:28:55;100729.00;;;13.60
64960;BMP180;51487;52.266;10.542;2023-04-21T08:31:21;100731.00;;;13.70
64960;BMP180;51487;52.266;10.542;2023-04-21T08:33:47;100727.00;;;13.80
64960;BMP180;51487;52.266;10.542;2023-04-21T08:36:13;100722.00;;;14.00
64960;BMP180;51487;52.266;10.542;2023-04-21T08:38:41;100724.00;;;14.00
64960;BMP180;51487;52.266;10.542;2023-04-21T08:41:08;100713.00;;;14.00
64960;BMP180;51487;52.266;10.542;2023-04-21T08:43:34;100720.00;;;14.10
64960;BMP180;51487;52.266;10.542;2023-04-21T08:46:05;100721.00;;;14.20
64960;BMP180;51487;52.266;10.542;2023-04-21T08:48:35;100729.00;;;14.40
64960;BMP180;51487;52.266;10.542;2023-04-21T08:51:02;100719.00;;;14.40
64960;BMP180;51487;52.266;10.542;2023-04-21T08:53:27;100716.00;;;14.50
64960;BMP180;51487;52.266;10.542;2023-04-21T08:55:54;100714.00;;;14.60
64960;BMP180;51487;52.266;10.542;2023-04-21T08:58:21;100718.00;;;14.60
64960;BMP180;51487;52.266;10.542;2023-04-21T09:00:50;100716.00;;;14.70
64960;BMP180;51487;52.266;10.542;2023-04-21T09:03:23;100707.00;;;14.80
64960;BMP180;51487;52.266;10.542;2023-04-21T09:06:00;100716.00;;;15.00
64960;BMP180;51487;52.266;10.542;2023-04-21T09:08:29;100711.00;;;15.00
64960;BMP180;51487;52.266;10.542;2023-04-21T09:10:57;100721.00;;;14.90
64960;BMP180;51487;52.266;10.542;2023-04-21T09:13:34;100711.00;;;15.00
64960;BMP180;51487;52.266;10.542;2023-04-21T09:16:02;100712.00;;;15.20
64960;BMP180;51487;52.266;10.542;2023-04-21T09:18:31;100724.00;;;15.30
64960;BMP180;51487;52.266;10.542;2023-04-21T09:21:08;100715.00;;;15.40
64960;BMP180;51487;52.266;10.542;2023-04-21T09:23:45;100720.00;;;15.50
64960;BMP180;51487;52.266;10.542;2023-04-21T09:26:13;100722.00;;;15.50
64960;BMP180;51487;52.266;10.542;2023-04-21T09:28:42;100718.00;;;15.50
64960;BMP180;51487;52.266;10.542;2023-04-21T09:31:21;100713.00;;;15.50
64960;BMP180;51487;52.266;10.542;2023-04-21T09:33:56;100706.00;;;15.60
64960;BMP180;51487;52.266;10.542;2023-04-21T09:36:24;100708.00;;;15.70
64960;BMP180;51487;52.266;10.542;2023-04-21T09:39:03;100724.00;;;15.80
64960;BMP180;51487;52.266;10.542;2023-04-21T09:41:32;100717.00;;;15.70
64960;BMP180;51487;52.266;10.542;2023-04-21T09:43:57;100710.00;;;15.80
64960;BMP180;51487;52.266;10.542;2023-04-21T09:46:26;100707.00;;;15.90
64960;BMP180;51487;52.266;10.542;2023-04-21T09:48:54;100697.00;;;16.00
64960;BMP180;51487;52.266;10.542;2023-04-21T09:51:23;100705.00;;;16.10
64960;BMP180;51487;52.266;10.542;2023-04-21T09:53:52;100695.00;;;16.20
64960;BMP180;51487;52.266;10.542;2023-04-21T09:56:23;100702.00;;;16.20
64960;BMP180;51487;52.266;10.542;2023-04-21T09:58:56;100707.00;;;16.20
64960;BMP180;51487;52.266;10.542;2023-04-21T10:01:26;100691.00;;;16.40
64960;BMP180;51487;52.266;10.542;2023-04-21T10:03:53;100695.00;;;16.50
64960;BMP180;51487;52.266;10.542;2023-04-21T10:06:19;100682.00;;;16.60
64960;BMP180;51487;52.266;10.542;2023-04-21T10:08:45;100683.00;;;16.60
64960;BMP180;51487;52.266;10.542;2023-04-21T10:11:12;100681.00;;;16.70
64960;BMP180;51487;52.266;10.542;2023-04-21T10:13:38;100676.00;;;16.80
64960;BMP180;51487;52.266;10.542;2023-04-21T10:16:07;100683.00;;;16.90
64960;BMP180;51487;52.266;10.542;2023-04-21T10:18:35;100677.00;;;17.00
64960;BMP180;51487;52.266;10.542;2023-04-21T10:21:07;100675.00;;;17.20
64960;BMP180;51487;52.266;10.542;2023-04-21T10:23:42;100687.00;;;17.10
64960;BMP180;51487;52.266;10.542;2023-04-21T10:29:10;100669.00;;;17.10
64960;BMP180;51487;52.266;10.542;2023-04-21T10:37:06;100672.00;;;17.10
64960;BMP180;51487;52.266;10.542;2023-04-21T10:39:44;100671.00;;;17.00
64960;BMP180;51487;52.266;10.542;2023-04-21T10:44:50;100666.00;;;17.20
64960;BMP180;51487;52.266;10.542;2023-04-21T10:47:41;100660.00;;;17.20
64960;BMP180;51487;52.266;10.542;2023-04-21T10:50:30;100663.00;;;17.30
64960;BMP180;51487;52.266;10.542;2023-04-21T10:55:47;100647.00;;;17.50
64960;BMP180;51487;52.266;10.542;2023-04-21T10:58:14;100660.00;;;17.50
64960;BMP180;51487;52.266;10.542;2023-04-21T11:00:40;100653.00;;;17.50
64960;BMP180;51487;52.266;10.542;2023-04-21T11:03:07;100655.00;;;17.60
64960;BMP180;51487;52.266;10.542;2023-04-21T11:05:35;100640.00;;;17.60
64960;BMP180;51487;52.266;10.542;2023-04-21T11:10:52;100625.00;;;17.60
64960;BMP180;51487;52.266;10.542;2023-04-21T11:13:20;100639.00;;;17.70
64960;BMP180;51487;52.266;10.542;2023-04-21T11:16:01;100634.00;;;17.80
64960;BMP180;51487;52.266;10.542;2023-04-21T11:18:36;100641.00;;;17.90
64960;BMP180;51487;52.266;10.542;2023-04-21T11:21:15;100629.00;;;17.80
64960;BMP180;51487;52.266;10.542;2023-04-21T11:23:49;100625.00;;;17.80
64960;BMP180;51487;52.266;10.542;2023-04-21T11:26:16;100623.00;;;17.90
64960;BMP180;51487;52.266;10.542;2023-04-21T11:28:46;100616.00;;;18.00
64960;BMP180;51487;52.266;10.542;2023-04-21T11:31:13;100621.00;;;18.00
64960;BMP180;51487;52.266;10.542;2023-04-21T11:33:40;100627.00;;;18.00
64960;BMP180;51487;52.266;10.542;2023-04-21T11:36:06;100613.00;;;18.10
64960;BMP180;51487;52.266;10.542;2023-04-21T11:38:42;100623.00;;;18.20
64960;BMP180;51487;52.266;10.542;2023-04-21T11:41:08;100607.00;;;18.20
64960;BMP180;51487;52.266;10.542;2023-04-21T11:43:35;100600.00;;;18.30
64960;BMP180;51487;52.266;10.542;2023-04-21T11:49:04;100604.00;;;18.50
64960;BMP180;51487;52.266;10.542;2023-04-21T11:51:39;100600.00;;;18.70
64960;BMP180;51487;52.266;10.542;2023-04-21T11:54:12;100610.00;;;18.60
64960;BMP180;51487;52.266;10.542;2023-04-21T11:56:39;100603.00;;;18.60
64960;BMP180;51487;52.266;10.542;2023-04-21T11:59:10;100603.00;;;18.70
64960;BMP180;51487;52.266;10.542;2023-04-21T12:01:44;100591.00;;;18.70
64960;BMP180;51487;52.266;10.542;2023-04-21T12:04:22;100598.00;;;18.70
64960;BMP180;51487;52.266;10.542;2023-04-21T12:06:58;100591.00;;;18.70
64960;BMP180;51487;52.266;10.542;2023-04-21T12:09:26;100593.00;;;18.70
64960;BMP180;51487;52.266;10.542;2023-04-21T12:11:54;100580.00;;;18.70
64960;BMP180;51487;52.266;10.542;2023-04-21T12:14:25;100600.00;;;18.60
64960;BMP180;51487;52.266;10.542;2023-04-21T12:16:56;100592.00;;;18.60
64960;BMP180;51487;52.266;10.542;2023-04-21T12:19:39;100596.00;;;18.60
64960;BMP180;51487;52.266;10.542;2023-04-21T12:22:14;100586.00;;;18.50
64960;BMP180;51487;52.266;10.542;2023-04-21T12:24:42;100591.00;;;18.50
64960;BMP180;51487;52.266;10.542;2023-04-21T12:27:09;100580.00;;;18.50
64960;BMP180;51487;52.266;10.542;2023-04-21T12:29:35;100579.00;;;18.50
64960;BMP180;51487;52.266;10.542;2023-04-21T12:32:03;100565.00;;;18.50
64960;BMP180;51487;52.266;10.542;2023-04-21T12:34:29;100567.00;;;18.50
64960;BMP180;51487;52.266;10.542;2023-04-21T12:36:55;100587.00;;;18.60
64960;BMP180;51487;52.266;10.542;2023-04-21T12:39:21;100569.00;;;18.60
64960;BMP180;51487;52.266;10.542;2023-04-21T12:41:46;100564.00;;;18.60
64960;BMP180;51487;52.266;10.542;2023-04-21T12:44:13;100561.00;;;18.60
64960;BMP180;51487;52.266;10.542;2023-04-21T12:46:40;100554.00;;;18.60
64960;BMP180;51487;52.266;10.542;2023-04-21T12:49:06;100567.00;;;18.60
64960;BMP180;51487;52.266;10.542;2023-04-21T12:51:33;100587.00;;;18.60
64960;BMP180;51487;52.266;10.542;2023-04-21T12:53:59;100546.00;;;18.70
64960;BMP180;51487;52.266;10.542;2023-04-21T12:56:25;100560.00;;;18.70
64960;BMP180;51487;52.266;10.542;2023-04-21T12:58:51;100553.00;;;18.80
64960;BMP180;51487;52.266;10.542;2023-04-21T13:01:17;100567.00;;;18.70
64960;BMP180;51487;52.266;10.542;2023-04-21T13:03:43;100559.00;;;18.80
64960;BMP180;51487;52.266;10.542;2023-04-21T13:06:09;100555.00;;;18.80
64960;BMP180;51487;52.266;10.542;2023-04-21T13:08:34;100540.00;;;18.70
64960;BMP180;51487;52.266;10.542;2023-04-21T13:11:01;100543.00;;;18.80
64960;BMP180;51487;52.266;10.542;2023-04-21T13:13:27;100539.00;;;18.80
64960;BMP180;51487;52.266;10.542;2023-04-21T13:15:52;100545.00;;;18.80
64960;BMP180;51487;52.266;10.542;2023-04-21T13:18:18;100535.00;;;18.90
64960;BMP180;51487;52.266;10.542;2023-04-21T13:20:44;100532.00;;;19.00
64960;BMP180;51487;52.266;10.542;2023-04-21T13:23:10;100540.00;;;19.00
64960;BMP180;51487;52.266;10.542;2023-04-21T13:25:37;100523.00;;;19.00
64960;BMP180;51487;52.266;10.542;2023-04-21T13:28:03;100534.00;;;18.90
64960;BMP180;51487;52.266;10.542;2023-04-21T13:30:29;100519.00;;;18.90
64960;BMP180;51487;52.266;10.542;2023-04-21T13:32:55;100520.00;;;19.00
64960;BMP180;51487;52.266;10.542;2023-04-21T13:35:20;100519.00;;;19.00
64960;BMP180;51487;52.266;10.542;2023-04-21T13:37:46;100523.00;;;19.00
64960;BMP180;51487;52.266;10.542;2023-04-21T13:40:13;100513.00;;;19.00
64960;BMP180;51487;52.266;10.542;2023-04-21T13:42:38;100514.00;;;19.10
64960;BMP180;51487;52.266;10.542;2023-04-21T13:45:05;100501.00;;;19.10
64960;BMP180;51487;52.266;10.542;2023-04-21T13:47:32;100501.00;;;19.10
64960;BMP180;51487;52.266;10.542;2023-04-21T13:49:58;100493.00;;;18.90
64960;BMP180;51487;52.266;10.542;2023-04-21T13:52:25;100482.00;;;19.00
64960;BMP180;51487;52.266;10.542;2023-04-21T13:54:52;100480.00;;;19.10
64960;BMP180;51487;52.266;10.542;2023-04-21T13:57:19;100480.00;;;19.00
64960;BMP180;51487;52.266;10.542;2023-04-21T13:59:45;100483.00;;;19.20
64960;BMP180;51487;52.266;10.542;2023-04-21T14:02:11;100472.00;;;19.20
64960;BMP180;51487;52.266;10.542;2023-04-21T14:04:36;100470.00;;;19.20
64960;BMP180;51487;52.266;10.542;2023-04-21T14:07:03;100479.00;;;19.20
64960;BMP180;51487;52.266;10.542;2023-04-21T14:09:29;100452.00;;;19.00